Time;durP1;ratioP1;P1;durP2;ratioP2;P2;SDS_P1;SDS_P2;PMS_P1;PMS_P2;Temp;Humidity;BMP_temperature;BMP_pressure;BME280_temperature;BME280_humidity;BME280_pressure;Samples;Min_cycle;Max_cycle;Signal;HPM_P1;HPM_P2
2022/09/20 00:01:11;;;;;;;;;;;;;;;;;;5042070;28;19971;-75
2022/09/20 00:03:38;;;;;;;;;;;;;;;;;;5043174;28;19932;-76
2022/09/20 00:06:06;;;;;;;;;;;;;;;;;;5054140;28;20405;-76
2022/09/20 00:08:33;;;;;;;;;;;;;;;;;;5054434;28;19995;-75
2022/09/20 00:11:01;;;;;;;;;;;;;;;;;;5055154;28;19925;-75
2022/09/20 00:13:28;;;;;;;;;;;;;;;;;;5046458;28;20311;-76
2022/09/20 00:15:55;;;;;;;;;;;;;;;;;;5039958;28;20336;-77
2022/09/20 00:18:23;;;;;;;;;;;;;;;;;;5050721;28;19960;-76
2022/09/20 00:20:53;;;;;;;;;;;;;;;;;;5046233;28;19924;-77
2022/09/20 00:23:25;;;;;;;;;;;;;;;;;;5055245;28;20267;-75
2022/09/20 00:25:56;;;;;;;;;;;;;;;;;;5044636;28;19925;-75
2022/09/20 00:28:23;;;;;;;;;;;;;;;;;;5051384;28;19925;-77
2022/09/20 00:30:49;;;;;;;;;;;;;;;;;;5046535;28;20466;-76
2022/09/20 00:33:16;;;;;;;;;;;;;;;;;;5054218;28;20391;-75
2022/09/20 00:35:43;;;;;;;;;;;;;;;;;;5054978;28;19925;-75
2022/09/20 00:38:10;;;;;;;;;;;;;;;;;;5055071;28;20303;-76
2022/09/20 00:40:37;;;;;;;;;;;;;;;;;;5055977;28;19928;-77
2022/09/20 00:43:03;;;;;;;;;;;;;;;;;;5054310;28;20395;-76
2022/09/20 00:45:30;;;;;;;;;;;;;;;;;;5054179;28;19932;-74
2022/09/20 00:47:59;;;;;;;;;;;;;;;;;;5054436;28;19924;-76
2022/09/20 00:50:28;;;;;;;;;;;;;;;;;;5054270;28;20445;-76
2022/09/20 00:52:58;;;;;;;;;;;;;;;;;;5054005;28;19925;-76
2022/09/20 00:55:25;;;;;;;;;;;;;;;;;;5054460;28;19925;-76
2022/09/20 00:57:51;;;;;;;;;;;;;;;;;;5053563;28;19943;-77
2022/09/20 01:00:18;;;;;;;;;;;;;;;;;;5054457;28;19979;-76
2022/09/20 01:02:46;;;;;;;;;;;;;;;;;;5051439;28;19975;-76
2022/09/20 01:05:14;;;;;;;;;;;;;;;;;;5053124;28;19925;-75
2022/09/20 01:07:42;;;;;;;;;;;;;;;;;;5052868;28;20375;-76
2022/09/20 01:10:10;;;;;;;;;;;;;;;;;;5034197;28;19932;-77
2022/09/20 01:12:40;;;;;;;;;;;;;;;;;;5045183;28;20308;-76
2022/09/20 01:15:08;;;;;;;;;;;;;;;;;;5054555;28;19925;-78
2022/09/20 01:17:35;;;;;;;;;;;;;;;;;;5053017;28;19994;-75
2022/09/20 01:20:09;;;;;;;;;;;;;;;;;;5053885;28;19975;-76
2022/09/20 01:22:41;;;;;;;;;;;;;;;;;;5053608;28;19929;-77
2022/09/20 01:25:12;;;;;;;;;;;;;;;;;;5053835;28;19929;-75
2022/09/20 01:27:42;;;;;;;;;;;;;;;;;;5053316;28;19929;-75
2022/09/20 01:30:10;;;;;;;;;;;;;;;;;;5053837;28;19925;-76
2022/09/20 01:32:44;;;;;;;;;;;;;;;;;;5053649;28;20360;-77
2022/09/20 01:35:11;;;;;;;;;;;;;;;;;;5053534;28;19979;-77
2022/09/20 01:37:42;;;;;;;;;;;;;;;;;;5052848;28;20014;-77
2022/09/20 01:40:10;;;;;;;;;;;;;;;;;;5053831;28;19947;-76
2022/09/20 01:42:37;;;;;;;;;;;;;;;;;;5054456;28;19925;-77
2022/09/20 01:45:08;;;;;;;;;;;;;;;;;;5053691;28;19924;-76
2022/09/20 01:47:38;;;;;;;;;;;;;;;;;;5053374;28;19924;-75
2022/09/20 01:50:12;;;;;;;;;;;;;;;;;;5053095;28;19925;-77
2022/09/20 01:52:56;;;;;;;;;;;;;;;;;;5053136;28;19929;-75
2022/09/20 01:55:43;;;;;;;;;;;;;;;;;;5012354;28;20473;-77
2022/09/20 01:58:26;;;;;;;;;;;;;;;;;;5052191;28;20011;-75
2022/09/20 02:01:03;;;;;;;;;;;;;;;;;;5052370;28;19935;-76
2022/09/20 02:03:50;;;;;;;;;;;;;;;;;;5041046;28;19925;-76
2022/09/20 02:06:31;;;;;;;;;;;;;;;;;;5051439;28;19924;-76
2022/09/20 02:09:13;;;;;;;;;;;;;;;;;;5051667;28;20260;-77
2022/09/20 02:11:51;;;;;;;;;;;;;;;;;;5052209;28;19925;-75
2022/09/20 02:14:30;;;;;;;;;;;;;;;;;;5052309;28;20026;-76
2022/09/20 02:17:01;;;;;;;;;;;;;;;;;;5051567;28;20447;-75
2022/09/20 02:19:33;;;;;;;;;;;;;;;;;;5051588;28;20398;-75
2022/09/20 02:22:07;;;;;;;;;;;;;;;;;;5052024;28;19925;-75
2022/09/20 02:24:38;;;;;;;;;;;;;;;;;;5052694;28;19928;-76
2022/09/20 02:27:12;;;;;;;;;;;;;;;;;;5055743;28;19933;-76
2022/09/20 02:29:43;;;;;;;;;;;;;;;;;;5035752;28;19925;-75
2022/09/20 02:32:20;;;;;;;;;;;;;;;;;;5048859;28;19947;-76
2022/09/20 02:34:54;;;;;;;;;;;;;;;;;;5055839;28;19978;-75
2022/09/20 02:37:33;;;;;;;;;;;;;;;;;;5055786;28;19979;-75
2022/09/20 02:40:04;;;;;;;;;;;;;;;;;;5035610;28;19931;-76
2022/09/20 02:42:34;;;;;;;;;;;;;;;;;;5050352;28;19925;-75
2022/09/20 02:45:06;;;;;;;;;;;;;;;;;;5055504;28;19931;-76
2022/09/20 02:47:36;;;;;;;;;;;;;;;;;;5055824;28;19933;-76
2022/09/20 02:50:10;;;;;;;;;;;;;;;;;;5055582;28;19929;-74
2022/09/20 02:52:40;;;;;;;;;;;;;;;;;;5055348;28;19928;-75
2022/09/20 02:55:10;;;;;;;;;;;;;;;;;;5055797;28;19931;-75
2022/09/20 02:57:42;;;;;;;;;;;;;;;;;;5055457;28;19931;-75
2022/09/20 03:00:11;;;;;;;;;;;;;;;;;;5054821;28;19931;-76
2022/09/20 03:02:43;;;;;;;;;;;;;;;;;;5043298;28;19925;-76
2022/09/20 03:05:13;;;;;;;;;;;;;;;;;;5042386;28;19994;-76
2022/09/20 03:07:45;;;;;;;;;;;;;;;;;;5055795;28;19924;-75
2022/09/20 03:10:16;;;;;;;;;;;;;;;;;;5054485;28;20380;-75
2022/09/20 03:12:48;;;;;;;;;;;;;;;;;;5055549;28;20637;-75
2022/09/20 03:15:17;;;;;;;;;;;;;;;;;;5055005;28;19932;-76
2022/09/20 03:17:47;;;;;;;;;;;;;;;;;;5054979;28;20291;-76
2022/09/20 03:20:19;;;;;;;;;;;;;;;;;;5054534;28;19935;-77
2022/09/20 03:22:53;;;;;;;;;;;;;;;;;;5055073;28;19925;-76
2022/09/20 03:25:29;;;;;;;;;;;;;;;;;;5055088;28;19925;-76
2022/09/20 03:28:03;;;;;;;;;;;;;;;;;;5054532;28;20396;-76
2022/09/20 03:30:37;;;;;;;;;;;;;;;;;;5053999;28;19932;-76
2022/09/20 03:33:10;;;;;;;;;;;;;;;;;;5054575;28;20399;-77
2022/09/20 03:35:43;;;;;;;;;;;;;;;;;;5054919;28;19932;-76
2022/09/20 03:38:14;;;;;;;;;;;;;;;;;;5054711;28;19957;-76
2022/09/20 03:40:59;;;;;;;;;;;;;;;;;;5034778;28;19936;-75
2022/09/20 03:43:29;;;;;;;;;;;;;;;;;;5051651;28;20473;-76
2022/09/20 03:46:02;;;;;;;;;;;;;;;;;;5054521;28;19925;-75
2022/09/20 03:48:53;;;;;;;;;;;;;;;;;;5054198;28;20022;-76
2022/09/20 03:51:26;;;;;;;;;;;;;;;;;;5038830;28;19924;-75
2022/09/20 03:54:09;;;;;;;;;;;;;;;;;;5053826;28;20000;-76
2022/09/20 03:56:46;;;;;;;;;;;;;;;;;;5054524;28;19924;-75
2022/09/20 03:59:29;;;;;;;;;;;;;;;;;;5033875;28;20398;-76
2022/09/20 04:02:08;;;;;;;;;;;;;;;;;;5036649;28;19947;-76
2022/09/20 04:04:40;;;;;;;;;;;;;;;;;;5054238;28;19925;-76
2022/09/20 04:07:15;;;;;;;;;;;;;;;;;;5054830;28;19933;-76
2022/09/20 04:10:06;;;;;;;;;;;;;;;;;;5054031;28;20391;-76
2022/09/20 04:12:39;;;;;;;;;;;;;;;;;;5034606;28;20433;-76
2022/09/20 04:15:16;;;;;;;;;;;;;;;;;;5054441;28;19925;-76
2022/09/20 04:17:47;;;;;;;;;;;;;;;;;;5054570;28;19924;-76
2022/09/20 04:20:16;;;;;;;;;;;;;;;;;;5054274;28;20391;-75
2022/09/20 04:22:44;;;;;;;;;;;;;;;;;;5054268;28;19932;-75
2022/09/20 04:25:13;;;;;;;;;;;;;;;;;;5054996;28;19925;-76
2022/09/20 04:27:41;;;;;;;;;;;;;;;;;;5054218;28;19924;-75
2022/09/20 04:30:16;;;;;;;;;;;;;;;;;;5054307;28;19935;-75
2022/09/20 04:32:44;;;;;;;;;;;;;;;;;;5054370;28;20011;-75
2022/09/20 04:38:03;;;;;;;;;;;;;;;;;;5054285;28;20430;-75
2022/09/20 04:40:36;;;;;;;;;;;;;;;;;;5054068;28;20019;-75
2022/09/20 04:43:21;;;;;;;;;;;;;;;;;;5053430;28;19960;-76
2022/09/20 04:46:01;;;;;;;;;;;;;;;;;;5054472;28;19924;-76
2022/09/20 04:48:36;;;;;;;;;;;;;;;;;;5053224;28;19932;-76
2022/09/20 04:51:18;;;;;;;;;;;;;;;;;;5054917;28;19931;-76
2022/09/20 04:53:53;;;;;;;;;;;;;;;;;;5054816;28;19975;-76
2022/09/20 04:56:20;;;;;;;;;;;;;;;;;;5054618;28;20367;-75
2022/09/20 04:58:48;;;;;;;;;;;;;;;;;;5054129;28;19986;-75
2022/09/20 05:01:35;;;;;;;;;;;;;;;;;;5053354;28;19935;-76
2022/09/20 05:04:25;;;;;;;;;;;;;;;;;;5053097;28;19925;-76
2022/09/20 05:07:03;;;;;;;;;;;;;;;;;;5032842;28;19924;-76
2022/09/20 05:09:48;;;;;;;;;;;;;;;;;;5049521;28;20426;-76
2022/09/20 05:12:23;;;;;;;;;;;;;;;;;;5032850;28;19925;-75
2022/09/20 05:15:07;;;;;;;;;;;;;;;;;;5040297;28;19925;-76
2022/09/20 05:17:43;;;;;;;;;;;;;;;;;;5033033;28;19980;-75
2022/09/20 05:20:22;;;;;;;;;;;;;;;;;;5041904;28;19925;-75
2022/09/20 05:23:08;;;;;;;;;;;;;;;;;;5052706;28;19925;-75
2022/09/20 05:25:50;;;;;;;;;;;;;;;;;;5052531;28;19936;-75
2022/09/20 05:28:22;;;;;;;;;;;;;;;;;;5052260;28;20360;-75
2022/09/20 05:30:49;;;;;;;;;;;;;;;;;;5052249;28;19924;-75
2022/09/20 05:33:20;;;;;;;;;;;;;;;;;;5052381;28;19999;-75
2022/09/20 05:35:53;;;;;;;;;;;;;;;;;;5052686;28;19967;-75
2022/09/20 05:38:23;;;;;;;;;;;;;;;;;;5052856;28;19975;-75
2022/09/20 05:41:07;;;;;;;;;;;;;;;;;;5052202;28;19955;-75
2022/09/20 05:43:34;;;;;;;;;;;;;;;;;;5052261;28;19925;-76
2022/09/20 05:46:10;;;;;;;;;;;;;;;;;;5052449;28;19925;-75
2022/09/20 05:48:39;;;;;;;;;;;;;;;;;;5052472;28;19925;-76
2022/09/20 05:51:09;;;;;;;;;;;;;;;;;;5052321;28;19944;-76
2022/09/20 05:53:50;;;;;;;;;;;;;;;;;;5052485;28;19929;-76
2022/09/20 05:56:22;;;;;;;;;;;;;;;;;;5052961;28;19928;-76
2022/09/20 05:58:57;;;;;;;;;;;;;;;;;;5053052;28;19931;-76
2022/09/20 06:01:25;;;;;;;;;;;;;;;;;;5050018;28;19925;-76
2022/09/20 06:03:55;;;;;;;;;;;;;;;;;;5036613;28;19931;-76
2022/09/20 06:06:26;;;;;;;;;;;;;;;;;;5052433;28;20415;-76
2022/09/20 06:09:12;;;;;;;;;;;;;;;;;;5052461;28;20423;-76
2022/09/20 06:11:57;;;;;;;;;;;;;;;;;;5052331;28;19933;-76
2022/09/20 06:14:32;;;;;;;;;;;;;;;;;;5052336;28;19975;-76
2022/09/20 06:17:04;;;;;;;;;;;;;;;;;;5052139;28;20365;-75
2022/09/20 06:19:34;;;;;;;;;;;;;;;;;;5051871;28;19956;-76
2022/09/20 06:22:03;;;;;;;;;;;;;;;;;;5052105;28;19925;-75
2022/09/20 06:24:33;;;;;;;;;;;;;;;;;;5051944;28;19924;-76
2022/09/20 06:27:01;;;;;;;;;;;;;;;;;;5051642;28;19943;-76
2022/09/20 06:29:30;;;;;;;;;;;;;;;;;;5052410;28;19947;-76
2022/09/20 06:31:57;;;;;;;;;;;;;;;;;;5052160;28;19931;-75
2022/09/20 06:34:23;;;;;;;;;;;;;;;;;;5051755;28;20396;-75
2022/09/20 06:42:26;;;;;;;;;;;;;;;;;;5052025;28;19931;-76
2022/09/20 06:44:54;;;;;;;;;;;;;;;;;;5052335;28;20296;-76
2022/09/20 06:47:22;;;;;;;;;;;;;;;;;;5052223;28;19924;-76
2022/09/20 06:49:49;;;;;;;;;;;;;;;;;;5052972;28;19976;-77
2022/09/20 06:52:16;;;;;;;;;;;;;;;;;;5044109;28;19983;-78
2022/09/20 06:54:44;;;;;;;;;;;;;;;;;;5042717;28;19924;-77
2022/09/20 06:57:11;;;;;;;;;;;;;;;;;;5043396;28;20316;-76
2022/09/20 06:59:38;;;;;;;;;;;;;;;;;;5044385;28;19961;-77
2022/09/20 07:02:07;;;;;;;;;;;;;;;;;;5046738;28;19932;-77
2022/09/20 07:04:33;;;;;;;;;;;;;;;;;;5045713;28;19925;-77
2022/09/20 07:07:00;;;;;;;;;;;;;;;;;;5045998;28;19931;-77
2022/09/20 07:09:26;;;;;;;;;;;;;;;;;;5055792;28;19935;-77
2022/09/20 07:11:54;;;;;;;;;;;;;;;;;;5058040;28;19933;-75
2022/09/20 07:14:22;;;;;;;;;;;;;;;;;;5038576;28;19925;-74
2022/09/20 07:16:48;;;;;;;;;;;;;;;;;;5043068;28;19932;-78
2022/09/20 07:19:16;;;;;;;;;;;;;;;;;;5045718;28;19940;-75
2022/09/20 07:21:42;;;;;;;;;;;;;;;;;;5044519;28;20410;-75
2022/09/20 07:24:09;;;;;;;;;;;;;;;;;;5046195;28;20015;-74
2022/09/20 07:26:35;;;;;;;;;;;;;;;;;;5045089;28;19949;-76
2022/09/20 07:29:02;;;;;;;;;;;;;;;;;;5042095;28;19925;-76
2022/09/20 07:31:29;;;;;;;;;;;;;;;;;;5042821;28;20459;-77
2022/09/20 07:33:56;;;;;;;;;;;;;;;;;;5042975;28;19929;-76
2022/09/20 07:36:24;;;;;;;;;;;;;;;;;;5044937;28;19929;-76
2022/09/20 07:38:51;;;;;;;;;;;;;;;;;;5044065;28;19986;-76
2022/09/20 07:41:18;;;;;;;;;;;;;;;;;;5040551;28;19925;-77
2022/09/20 07:43:45;;;;;;;;;;;;;;;;;;5043241;28;19925;-77
2022/09/20 07:46:12;;;;;;;;;;;;;;;;;;5044217;28;19925;-76
2022/09/20 07:48:39;;;;;;;;;;;;;;;;;;5041394;28;19936;-77
2022/09/20 07:51:07;;;;;;;;;;;;;;;;;;5040973;28;19925;-76
2022/09/20 07:53:35;;;;;;;;;;;;;;;;;;5043091;28;19924;-76
2022/09/20 07:56:02;;;;;;;;;;;;;;;;;;5043817;28;19971;-75
2022/09/20 07:58:29;;;;;;;;;;;;;;;;;;5042391;28;19944;-75
2022/09/20 08:00:57;;;;;;;;;;;;;;;;;;5044948;28;20003;-75
2022/09/20 08:03:24;;;;;;;;;;;;;;;;;;5036866;28;20299;-75
2022/09/20 08:05:50;;;;;;;;;;;;;;;;;;5047611;28;19931;-75
2022/09/20 08:08:17;;;;;;;;;;;;;;;;;;5040610;28;19950;-75
2022/09/20 08:10:45;;;;;;;;;;;;;;;;;;5045354;28;19948;-76
2022/09/20 08:13:12;;;;;;;;;;;;;;;;;;5040901;28;20296;-75
2022/09/20 08:15:39;;;;;;;;;;;;;;;;;;5044565;28;20348;-75
2022/09/20 08:18:07;;;;;;;;;;;;;;;;;;5046778;28;20011;-75
2022/09/20 08:20:37;;;;;;;;;;;;;;;;;;5045141;28;19986;-75
2022/09/20 08:23:04;;;;;;;;;;;;;;;;;;5039172;28;20359;-75
2022/09/20 08:25:30;;;;;;;;;;;;;;;;;;5037366;28;19964;-76
2022/09/20 08:27:58;;;;;;;;;;;;;;;;;;5051220;28;20404;-75
2022/09/20 08:30:25;;;;;;;;;;;;;;;;;;5051692;28;20011;-76
2022/09/20 08:32:54;;;;;;;;;;;;;;;;;;5053340;28;19935;-79
2022/09/20 08:35:24;;;;;;;;;;;;;;;;;;5052535;28;19960;-75
2022/09/20 08:37:53;;;;;;;;;;;;;;;;;;5049615;28;20461;-76
2022/09/20 08:40:20;;;;;;;;;;;;;;;;;;5047277;28;19930;-76
2022/09/20 08:42:47;;;;;;;;;;;;;;;;;;5050836;28;20441;-77
2022/09/20 08:45:16;;;;;;;;;;;;;;;;;;5048102;28;20458;-76
2022/09/20 08:47:47;;;;;;;;;;;;;;;;;;5054854;28;19925;-78
2022/09/20 08:50:14;;;;;;;;;;;;;;;;;;5055142;28;19931;-76
2022/09/20 08:52:44;;;;;;;;;;;;;;;;;;5055865;28;20408;-82
2022/09/20 08:55:13;;;;;;;;;;;;;;;;;;5052681;28;19925;-78
2022/09/20 08:57:40;;;;;;;;;;;;;;;;;;5032459;28;19951;-75
2022/09/20 09:00:07;;;;;;;;;;;;;;;;;;5048853;28;19925;-75
2022/09/20 09:02:35;;;;;;;;;;;;;;;;;;5042804;28;19965;-74
2022/09/20 09:05:03;;;;;;;;;;;;;;;;;;5044149;28;20411;-74
2022/09/20 09:07:29;;;;;;;;;;;;;;;;;;5050952;28;20446;-74
2022/09/20 09:09:56;;;;;;;;;;;;;;;;;;5034434;28;19932;-74
2022/09/20 09:12:24;;;;;;;;;;;;;;;;;;5048910;28;20011;-74
2022/09/20 09:14:53;;;;;;;;;;;;;;;;;;5033117;28;19926;-75
2022/09/20 09:17:21;;;;;;;;;;;;;;;;;;5045560;28;19924;-75
2022/09/20 09:19:50;;;;;;;;;;;;;;;;;;5030827;28;20023;-74
2022/09/20 09:22:21;;;;;;;;;;;;;;;;;;5031313;28;20345;-73
2022/09/20 09:25:02;;;;;;;;;;;;;;;;;;5031041;28;19972;-74
2022/09/20 09:27:28;;;;;;;;;;;;;;;;;;5039941;28;20477;-73
2022/09/20 09:29:56;;;;;;;;;;;;;;;;;;5045109;28;20450;-72
2022/09/20 09:32:23;;;;;;;;;;;;;;;;;;5049542;28;19928;-73
2022/09/20 09:34:51;;;;;;;;;;;;;;;;;;5050029;28;19929;-73
2022/09/20 09:37:25;;;;;;;;;;;;;;;;;;5050761;28;20007;-73
2022/09/20 09:40:07;;;;;;;;;;;;;;;;;;5049086;28;20502;-74
2022/09/20 09:42:34;;;;;;;;;;;;;;;;;;5047913;28;19979;-74
2022/09/20 09:45:10;;;;;;;;;;;;;;;;;;5049632;28;20430;-72
2022/09/20 09:47:37;;;;;;;;;;;;;;;;;;5050661;28;19925;-73
2022/09/20 09:50:05;;;;;;;;;;;;;;;;;;5050388;28;19952;-73
2022/09/20 09:52:34;;;;;;;;;;;;;;;;;;5048115;28;19924;-74
2022/09/20 09:55:02;;;;;;;;;;;;;;;;;;5047956;28;19925;-73
2022/09/20 09:57:36;;;;;;;;;;;;;;;;;;5048223;28;19931;-73
2022/09/20 10:00:09;;;;;;;;;;;;;;;;;;5048591;28;19924;-74
2022/09/20 10:02:47;;;;;;;;;;;;;;;;;;5040272;28;19929;-74
2022/09/20 10:05:19;;;;;;;;;;;;;;;;;;5050686;28;19932;-74
2022/09/20 10:07:50;;;;;;;;;;;;;;;;;;5049942;28;19924;-73
2022/09/20 10:10:23;;;;;;;;;;;;;;;;;;5049657;28;20449;-73
2022/09/20 10:13:00;;;;;;;;;;;;;;;;;;5045875;28;19929;-74
2022/09/20 10:15:30;;;;;;;;;;;;;;;;;;5038486;28;20363;-74
2022/09/20 10:18:06;;;;;;;;;;;;;;;;;;5049659;28;20398;-74
2022/09/20 10:20:41;;;;;;;;;;;;;;;;;;5049831;28;19928;-74
2022/09/20 10:23:18;;;;;;;;;;;;;;;;;;5049869;28;20285;-73
2022/09/20 10:25:49;;;;;;;;;;;;;;;;;;5049979;28;19976;-73
2022/09/20 10:28:21;;;;;;;;;;;;;;;;;;5045335;28;20138;-74
2022/09/20 10:30:57;;;;;;;;;;;;;;;;;;5049734;28;20526;-74
2022/09/20 10:33:28;;;;;;;;;;;;;;;;;;5050207;28;19925;-74
2022/09/20 10:36:01;;;;;;;;;;;;;;;;;;5049959;28;19925;-72
2022/09/20 10:38:30;;;;;;;;;;;;;;;;;;5049891;28;19957;-76
2022/09/20 10:43:58;;;;;;;;;;;;;;;;;;5053249;28;19931;-76
2022/09/20 10:46:28;;;;;;;;;;;;;;;;;;5057527;28;19948;-76
2022/09/20 10:49:01;;;;;;;;;;;;;;;;;;5057755;28;19931;-76
2022/09/20 10:51:38;;;;;;;;;;;;;;;;;;5056005;28;20058;-75
2022/09/20 10:54:13;;;;;;;;;;;;;;;;;;5055938;28;19929;-78
2022/09/20 10:56:43;;;;;;;;;;;;;;;;;;5056173;28;19956;-76
2022/09/20 10:59:21;;;;;;;;;;;;;;;;;;5054041;28;19935;-75
2022/09/20 11:01:53;;;;;;;;;;;;;;;;;;5054006;28;19925;-73
2022/09/20 11:04:39;;;;;;;;;;;;;;;;;;5052991;28;19929;-73
2022/09/20 11:07:11;;;;;;;;;;;;;;;;;;5053778;28;20335;-73
2022/09/20 11:09:40;;;;;;;;;;;;;;;;;;5054558;28;20015;-74
2022/09/20 11:12:10;;;;;;;;;;;;;;;;;;5053554;28;20563;-80
2022/09/20 11:14:40;;;;;;;;;;;;;;;;;;5056274;28;19925;-73
2022/09/20 11:17:12;;;;;;;;;;;;;;;;;;5051208;28;20311;-73
2022/09/20 11:19:46;;;;;;;;;;;;;;;;;;5052063;28;20499;-73
2022/09/20 11:22:16;;;;;;;;;;;;;;;;;;5040978;28;20003;-73
2022/09/20 11:24:45;;;;;;;;;;;;;;;;;;5051846;28;19954;-73
2022/09/20 11:27:15;;;;;;;;;;;;;;;;;;5053288;28;19951;-73
2022/09/20 11:29:44;;;;;;;;;;;;;;;;;;5046542;28;19932;-73
2022/09/20 11:32:13;;;;;;;;;;;;;;;;;;5051932;28;20458;-74
2022/09/20 11:34:42;;;;;;;;;;;;;;;;;;5050757;28;20019;-74
2022/09/20 11:37:09;;;;;;;;;;;;;;;;;;5053386;28;19931;-73
2022/09/20 11:39:39;;;;;;;;;;;;;;;;;;5052362;28;20013;-73
2022/09/20 11:42:07;;;;;;;;;;;;;;;;;;5050489;28;20008;-73
2022/09/20 11:44:36;;;;;;;;;;;;;;;;;;5040444;28;19925;-74
2022/09/20 11:47:06;;;;;;;;;;;;;;;;;;5053119;28;19932;-74
2022/09/20 11:49:39;;;;;;;;;;;;;;;;;;5053268;28;19972;-74
2022/09/20 11:52:22;;;;;;;;;;;;;;;;;;5054033;28;19980;-73
2022/09/20 11:54:56;;;;;;;;;;;;;;;;;;5054017;28;19931;-74
2022/09/20 11:57:23;;;;;;;;;;;;;;;;;;5051045;28;19960;-74
2022/09/20 11:59:52;;;;;;;;;;;;;;;;;;5052526;28;19971;-73
2022/09/20 12:02:26;;;;;;;;;;;;;;;;;;5042172;28;19968;-73
2022/09/20 12:05:02;;;;;;;;;;;;;;;;;;5049816;28;19931;-73
2022/09/20 12:07:35;;;;;;;;;;;;;;;;;;5040204;28;19932;-75
2022/09/20 12:10:15;;;;;;;;;;;;;;;;;;5051856;28;19924;-73
2022/09/20 12:12:45;;;;;;;;;;;;;;;;;;5032574;28;19948;-74
2022/09/20 12:15:23;;;;;;;;;;;;;;;;;;5042124;28;19932;-75
2022/09/20 12:18:14;;;;;;;;;;;;;;;;;;5048525;28;19964;-74
2022/09/20 12:21:01;;;;;;;;;;;;;;;;;;5050825;28;19932;-73
2022/09/20 12:23:45;;;;;;;;;;;;;;;;;;5051365;28;20015;-72
2022/09/20 12:26:33;;;;;;;;;;;;;;;;;;5051486;28;20003;-74
2022/09/20 12:29:09;;;;;;;;;;;;;;;;;;5051407;28;20019;-74
2022/09/20 12:31:47;;;;;;;;;;;;;;;;;;5050892;28;19925;-73
2022/09/20 12:34:32;;;;;;;;;;;;;;;;;;5051432;28;19971;-73
2022/09/20 12:37:18;;;;;;;;;;;;;;;;;;5042243;28;20008;-73
2022/09/20 12:39:51;;;;;;;;;;;;;;;;;;5051236;28;19925;-73
2022/09/20 12:42:27;;;;;;;;;;;;;;;;;;5049994;28;20611;-73
2022/09/20 12:44:58;;;;;;;;;;;;;;;;;;5051078;28;20023;-73
2022/09/20 12:47:26;;;;;;;;;;;;;;;;;;5051208;28;20006;-74
2022/09/20 12:53:02;;;;;;;;;;;;;;;;;;5050919;28;19939;-73
2022/09/20 12:55:42;;;;;;;;;;;;;;;;;;5051054;28;19932;-72
2022/09/20 12:58:18;;;;;;;;;;;;;;;;;;5049732;28;19944;-73
2022/09/20 13:00:46;;;;;;;;;;;;;;;;;;5050736;28;19924;-73
2022/09/20 13:03:23;;;;;;;;;;;;;;;;;;5035025;28;19968;-73
2022/09/20 13:05:51;;;;;;;;;;;;;;;;;;5051349;28;19994;-73
2022/09/20 13:08:20;;;;;;;;;;;;;;;;;;5049842;28;20627;-74
2022/09/20 13:10:48;;;;;;;;;;;;;;;;;;5050558;28;20481;-74
2022/09/20 13:13:21;;;;;;;;;;;;;;;;;;5050006;28;19924;-73
2022/09/20 13:15:52;;;;;;;;;;;;;;;;;;5051456;28;20002;-73
2022/09/20 13:18:19;;;;;;;;;;;;;;;;;;5050264;28;19931;-74
2022/09/20 13:20:46;;;;;;;;;;;;;;;;;;5049980;28;19925;-73
2022/09/20 13:23:23;;;;;;;;;;;;;;;;;;5050123;28;19925;-72
2022/09/20 13:25:56;;;;;;;;;;;;;;;;;;5050225;28;19924;-74
2022/09/20 13:28:34;;;;;;;;;;;;;;;;;;5049626;28;20299;-73
2022/09/20 13:31:21;;;;;;;;;;;;;;;;;;5050061;28;20015;-74
2022/09/20 13:33:49;;;;;;;;;;;;;;;;;;5050857;28;20379;-73
2022/09/20 13:36:30;;;;;;;;;;;;;;;;;;5050574;28;20269;-73
2022/09/20 13:38:57;;;;;;;;;;;;;;;;;;5050244;28;19932;-72
2022/09/20 13:41:27;;;;;;;;;;;;;;;;;;5049900;28;20375;-72
2022/09/20 13:43:54;;;;;;;;;;;;;;;;;;5050276;28;19936;-72
2022/09/20 13:46:27;;;;;;;;;;;;;;;;;;5050780;28;19929;-74
2022/09/20 13:49:20;;;;;;;;;;;;;;;;;;5049660;28;20206;-72
2022/09/20 13:51:48;;;;;;;;;;;;;;;;;;5044641;28;19986;-73
2022/09/20 13:54:20;;;;;;;;;;;;;;;;;;5030606;28;19925;-73
2022/09/20 13:56:47;;;;;;;;;;;;;;;;;;5045617;28;19925;-73
2022/09/20 13:59:16;;;;;;;;;;;;;;;;;;5049323;28;20018;-72
2022/09/20 14:01:47;;;;;;;;;;;;;;;;;;5045035;28;20016;-73
2022/09/20 14:04:15;;;;;;;;;;;;;;;;;;5040487;28;19934;-73
2022/09/20 14:06:42;;;;;;;;;;;;;;;;;;5041383;28;19929;-73
2022/09/20 14:09:18;;;;;;;;;;;;;;;;;;5041054;28;20389;-74
2022/09/20 14:11:45;;;;;;;;;;;;;;;;;;5038475;28;19936;-73
2022/09/20 14:14:13;;;;;;;;;;;;;;;;;;5040500;28;19929;-74
2022/09/20 14:16:43;;;;;;;;;;;;;;;;;;5050329;28;19935;-74
2022/09/20 14:19:12;;;;;;;;;;;;;;;;;;5054218;28;19964;-73
2022/09/20 14:21:38;;;;;;;;;;;;;;;;;;5048009;28;19925;-74
2022/09/20 14:24:06;;;;;;;;;;;;;;;;;;5048752;28;19967;-74
2022/09/20 14:26:35;;;;;;;;;;;;;;;;;;5047044;28;20007;-74
2022/09/20 14:29:16;;;;;;;;;;;;;;;;;;5048169;28;20457;-73
2022/09/20 14:31:45;;;;;;;;;;;;;;;;;;5049253;28;20380;-74
2022/09/20 14:34:12;;;;;;;;;;;;;;;;;;5041168;28;19936;-74
2022/09/20 14:36:39;;;;;;;;;;;;;;;;;;5040558;28;19932;-74
2022/09/20 14:39:14;;;;;;;;;;;;;;;;;;5039496;28;19924;-74
2022/09/20 14:41:42;;;;;;;;;;;;;;;;;;5045011;28;20024;-74
2022/09/20 14:44:21;;;;;;;;;;;;;;;;;;5034498;28;20462;-73
2022/09/20 14:46:47;;;;;;;;;;;;;;;;;;5048219;28;19933;-73
2022/09/20 14:49:22;;;;;;;;;;;;;;;;;;5044267;28;19931;-73
2022/09/20 14:51:48;;;;;;;;;;;;;;;;;;5033628;28;19925;-73
2022/09/20 14:54:23;;;;;;;;;;;;;;;;;;5030415;28;20008;-74
2022/09/20 14:56:51;;;;;;;;;;;;;;;;;;5046839;28;19925;-75
2022/09/20 14:59:23;;;;;;;;;;;;;;;;;;5047992;28;19925;-74
2022/09/20 15:02:01;;;;;;;;;;;;;;;;;;5046204;28;20384;-74
2022/09/20 15:04:28;;;;;;;;;;;;;;;;;;5049533;28;19929;-74
2022/09/20 15:06:55;;;;;;;;;;;;;;;;;;5049271;28;20399;-72
2022/09/20 15:09:22;;;;;;;;;;;;;;;;;;5049690;28;19948;-74
2022/09/20 15:12:00;;;;;;;;;;;;;;;;;;5049487;28;20600;-73
2022/09/20 15:14:26;;;;;;;;;;;;;;;;;;5048787;28;20019;-73
2022/09/20 15:16:53;;;;;;;;;;;;;;;;;;5049577;28;19935;-74
2022/09/20 15:19:19;;;;;;;;;;;;;;;;;;5047192;28;20019;-75
2022/09/20 15:21:46;;;;;;;;;;;;;;;;;;5044269;28;19925;-72
2022/09/20 15:24:12;;;;;;;;;;;;;;;;;;5050316;28;19960;-74
2022/09/20 15:26:38;;;;;;;;;;;;;;;;;;5049623;28;19925;-77
2022/09/20 15:29:06;;;;;;;;;;;;;;;;;;5049618;28;19924;-76
2022/09/20 15:31:33;;;;;;;;;;;;;;;;;;5050105;28;19955;-74
2022/09/20 15:33:59;;;;;;;;;;;;;;;;;;5047527;28;19931;-74
2022/09/20 15:36:30;;;;;;;;;;;;;;;;;;5037937;28;19925;-73
2022/09/20 15:38:57;;;;;;;;;;;;;;;;;;5048515;28;20306;-74
2022/09/20 15:41:23;;;;;;;;;;;;;;;;;;5053620;28;19991;-74
2022/09/20 15:43:50;;;;;;;;;;;;;;;;;;5053314;28;19925;-74
2022/09/20 15:46:19;;;;;;;;;;;;;;;;;;5053212;28;19924;-74
2022/09/20 15:48:45;;;;;;;;;;;;;;;;;;5053337;28;19925;-74
2022/09/20 15:51:13;;;;;;;;;;;;;;;;;;5053654;28;19925;-74
2022/09/20 15:53:43;;;;;;;;;;;;;;;;;;5052752;28;20029;-74
2022/09/20 15:56:15;;;;;;;;;;;;;;;;;;5052732;28;19925;-74
2022/09/20 15:58:44;;;;;;;;;;;;;;;;;;5053439;28;19928;-73
2022/09/20 16:01:11;;;;;;;;;;;;;;;;;;5053098;28;20023;-74
2022/09/20 16:03:39;;;;;;;;;;;;;;;;;;5050921;28;19960;-73
2022/09/20 16:06:07;;;;;;;;;;;;;;;;;;5046513;28;19933;-73
2022/09/20 16:08:34;;;;;;;;;;;;;;;;;;5049334;28;19963;-76
2022/09/20 16:11:00;;;;;;;;;;;;;;;;;;5054574;28;19931;-75
2022/09/20 16:13:27;;;;;;;;;;;;;;;;;;5048062;28;20025;-78
2022/09/20 16:15:54;;;;;;;;;;;;;;;;;;5043415;28;19937;-75
2022/09/20 16:21:07;;;;;;;;;;;;;;;;;;5051941;28;20055;-80
2022/09/20 16:23:36;;;;;;;;;;;;;;;;;;5039886;28;19935;-74
2022/09/20 16:26:02;;;;;;;;;;;;;;;;;;5055355;28;19924;-72
2022/09/20 16:28:29;;;;;;;;;;;;;;;;;;5056633;28;20288;-74
2022/09/20 16:30:56;;;;;;;;;;;;;;;;;;5055396;28;20015;-74
2022/09/20 16:33:22;;;;;;;;;;;;;;;;;;5049448;28;20383;-74
2022/09/20 16:35:49;;;;;;;;;;;;;;;;;;5047009;28;19960;-74
2022/09/20 16:38:17;;;;;;;;;;;;;;;;;;5033083;28;19931;-75
2022/09/20 16:40:43;;;;;;;;;;;;;;;;;;5051568;28;19970;-74
2022/09/20 16:43:09;;;;;;;;;;;;;;;;;;5034661;28;20465;-74
2022/09/20 16:45:36;;;;;;;;;;;;;;;;;;5047273;28;20015;-74
2022/09/20 16:48:03;;;;;;;;;;;;;;;;;;5051664;28;20312;-74
2022/09/20 16:50:29;;;;;;;;;;;;;;;;;;5046051;28;20063;-72
2022/09/20 16:52:56;;;;;;;;;;;;;;;;;;5050795;28;19924;-74
2022/09/20 16:55:24;;;;;;;;;;;;;;;;;;5051773;28;19931;-73
2022/09/20 16:57:50;;;;;;;;;;;;;;;;;;5051523;28;19951;-73
2022/09/20 17:00:19;;;;;;;;;;;;;;;;;;5050478;28;20376;-73
2022/09/20 17:02:48;;;;;;;;;;;;;;;;;;5039816;28;19935;-73
2022/09/20 17:05:15;;;;;;;;;;;;;;;;;;5051221;28;20461;-73
2022/09/20 17:07:42;;;;;;;;;;;;;;;;;;5051036;28;19932;-72
2022/09/20 17:10:08;;;;;;;;;;;;;;;;;;5051041;28;20291;-72
2022/09/20 17:12:40;;;;;;;;;;;;;;;;;;5051494;28;19933;-74
2022/09/20 17:15:07;;;;;;;;;;;;;;;;;;5050702;28;19925;-74
2022/09/20 17:17:33;;;;;;;;;;;;;;;;;;5033571;28;19925;-74
2022/09/20 17:20:00;;;;;;;;;;;;;;;;;;5032075;28;19932;-73
2022/09/20 17:22:27;;;;;;;;;;;;;;;;;;5032953;28;19925;-73
2022/09/20 17:24:53;;;;;;;;;;;;;;;;;;5032134;28;19994;-73
2022/09/20 17:27:20;;;;;;;;;;;;;;;;;;5052282;28;19925;-74
2022/09/20 17:29:48;;;;;;;;;;;;;;;;;;5053095;28;19932;-74